Amherst, Nebraska
Current Conditions -  °F | °C
As of 6:55 AM on Friday 24 Oct 2014 (Local Time) from KEAR Reporting Station
Clear Clear  
Wind Chill: 54°   Ceiling: Unl
Heat Index: 54°   Visibility: 5mi
Dew Point: 50°   Wind: 10mph
Humidity: 88%   Direction: 200°SSW
Pressure: 29.96"   Gusts: NA
Location:  40.77°N, 99.27°W
Report Text: KEAR 241155Z 20009KT 5SM CLR 12/10 A2996 RMK AO1 10120 20110 57007
Loading
Personal Weather Stations






























Interactive Weather Map
Tropical Storm Tracking
New forecast layout! Learn more

10-Day Weather Forecast

Advertisements
Track Severe Weather on mobile